sensor_id;sensor_type;location;lat;lon;timestamp;P1;durP1;ratioP1;P2;durP2;ratioP2
836;SDS011;400;53.550;9.932;2022-09-24T00:01:44;9.80;;;8.47;;
836;SDS011;400;53.550;9.932;2022-09-24T00:04:13;10.27;;;9.20;;
836;SDS011;400;53.550;9.932;2022-09-24T00:06:45;9.83;;;9.03;;
836;SDS011;400;53.550;9.932;2022-09-24T00:09:14;10.40;;;9.30;;
836;SDS011;400;53.550;9.932;2022-09-24T00:11:46;11.23;;;8.50;;
836;SDS011;400;53.550;9.932;2022-09-24T00:14:18;11.43;;;8.93;;
836;SDS011;400;53.550;9.932;2022-09-24T00:16:49;9.30;;;8.47;;
836;SDS011;400;53.550;9.932;2022-09-24T00:19:19;7.67;;;6.97;;
836;SDS011;400;53.550;9.932;2022-09-24T00:21:51;9.27;;;8.57;;
836;SDS011;400;53.550;9.932;2022-09-24T00:24:20;9.70;;;8.90;;
836;SDS011;400;53.550;9.932;2022-09-24T00:27:08;7.10;;;6.60;;
836;SDS011;400;53.550;9.932;2022-09-24T00:29:35;6.87;;;6.27;;
836;SDS011;400;53.550;9.932;2022-09-24T00:32:02;6.90;;;6.00;;
836;SDS011;400;53.550;9.932;2022-09-24T00:34:31;6.50;;;6.03;;
836;SDS011;400;53.550;9.932;2022-09-24T00:36:59;6.60;;;6.10;;
836;SDS011;400;53.550;9.932;2022-09-24T00:39:26;7.77;;;7.00;;
836;SDS011;400;53.550;9.932;2022-09-24T00:41:54;11.27;;;8.00;;
836;SDS011;400;53.550;9.932;2022-09-24T00:47:21;8.20;;;7.60;;
836;SDS011;400;53.550;9.932;2022-09-24T00:49:53;9.17;;;8.47;;
836;SDS011;400;53.550;9.932;2022-09-24T00:52:41;9.77;;;9.07;;
836;SDS011;400;53.550;9.932;2022-09-24T00:55:10;7.90;;;7.27;;
836;SDS011;400;53.550;9.932;2022-09-24T00:57:44;10.00;;;9.20;;
836;SDS011;400;53.550;9.932;2022-09-24T01:00:15;9.67;;;8.77;;
836;SDS011;400;53.550;9.932;2022-09-24T01:02:44;10.07;;;9.07;;
836;SDS011;400;53.550;9.932;2022-09-24T01:05:19;9.90;;;9.10;;
836;SDS011;400;53.550;9.932;2022-09-24T01:07:49;9.87;;;8.97;;
836;SDS011;400;53.550;9.932;2022-09-24T01:10:19;10.47;;;9.57;;
836;SDS011;400;53.550;9.932;2022-09-24T01:13:14;9.30;;;8.60;;
836;SDS011;400;53.550;9.932;2022-09-24T01:15:56;9.90;;;9.00;;
836;SDS011;400;53.550;9.932;2022-09-24T01:18:30;10.30;;;9.40;;
836;SDS011;400;53.550;9.932;2022-09-24T01:21:17;10.00;;;9.20;;
836;SDS011;400;53.550;9.932;2022-09-24T01:27:05;11.33;;;10.43;;
836;SDS011;400;53.550;9.932;2022-09-24T01:29:39;10.90;;;10.00;;
836;SDS011;400;53.550;9.932;2022-09-24T01:32:22;11.23;;;10.33;;
836;SDS011;400;53.550;9.932;2022-09-24T01:34:54;10.80;;;9.83;;
836;SDS011;400;53.550;9.932;2022-09-24T01:37:25;11.33;;;10.33;;
836;SDS011;400;53.550;9.932;2022-09-24T01:39:55;10.83;;;9.93;;
836;SDS011;400;53.550;9.932;2022-09-24T01:42:24;11.23;;;10.20;;
836;SDS011;400;53.550;9.932;2022-09-24T01:44:55;11.97;;;11.03;;
836;SDS011;400;53.550;9.932;2022-09-24T01:47:28;12.47;;;11.30;;
836;SDS011;400;53.550;9.932;2022-09-24T01:49:56;12.23;;;11.23;;
836;SDS011;400;53.550;9.932;2022-09-24T01:52:24;12.03;;;11.10;;
836;SDS011;400;53.550;9.932;2022-09-24T01:54:59;13.50;;;12.50;;
836;SDS011;400;53.550;9.932;2022-09-24T01:57:28;13.00;;;11.90;;
836;SDS011;400;53.550;9.932;2022-09-24T02:00:01;12.30;;;11.33;;
836;SDS011;400;53.550;9.932;2022-09-24T02:02:44;13.70;;;12.40;;
836;SDS011;400;53.550;9.932;2022-09-24T02:05:24;14.57;;;13.40;;
836;SDS011;400;53.550;9.932;2022-09-24T02:08:06;14.20;;;12.93;;
836;SDS011;400;53.550;9.932;2022-09-24T02:10:41;13.77;;;12.67;;
836;SDS011;400;53.550;9.932;2022-09-24T02:13:12;14.67;;;13.47;;
836;SDS011;400;53.550;9.932;2022-09-24T02:15:52;14.10;;;12.80;;
836;SDS011;400;53.550;9.932;2022-09-24T02:18:25;14.23;;;13.10;;
836;SDS011;400;53.550;9.932;2022-09-24T02:21:00;14.23;;;13.13;;
836;SDS011;400;53.550;9.932;2022-09-24T02:23:32;14.30;;;13.17;;
836;SDS011;400;53.550;9.932;2022-09-24T02:26:02;15.50;;;14.00;;
836;SDS011;400;53.550;9.932;2022-09-24T02:28:34;15.53;;;14.13;;
836;SDS011;400;53.550;9.932;2022-09-24T02:31:10;15.37;;;13.87;;
836;SDS011;400;53.550;9.932;2022-09-24T02:33:40;16.73;;;15.23;;
836;SDS011;400;53.550;9.932;2022-09-24T02:36:26;18.23;;;16.37;;
836;SDS011;400;53.550;9.932;2022-09-24T02:38:56;18.67;;;17.03;;
836;SDS011;400;53.550;9.932;2022-09-24T02:41:23;17.97;;;16.47;;
836;SDS011;400;53.550;9.932;2022-09-24T02:43:52;18.73;;;16.97;;
836;SDS011;400;53.550;9.932;2022-09-24T02:46:20;18.70;;;17.07;;
836;SDS011;400;53.550;9.932;2022-09-24T02:48:49;18.03;;;16.30;;
836;SDS011;400;53.550;9.932;2022-09-24T02:51:27;17.33;;;15.73;;
836;SDS011;400;53.550;9.932;2022-09-24T02:54:03;16.80;;;15.30;;
836;SDS011;400;53.550;9.932;2022-09-24T02:56:31;16.07;;;14.70;;
836;SDS011;400;53.550;9.932;2022-09-24T02:58:58;17.10;;;15.63;;
836;SDS011;400;53.550;9.932;2022-09-24T03:01:28;17.03;;;15.53;;
836;SDS011;400;53.550;9.932;2022-09-24T03:04:01;17.17;;;15.57;;
836;SDS011;400;53.550;9.932;2022-09-24T03:06:30;15.73;;;14.53;;
836;SDS011;400;53.550;9.932;2022-09-24T03:09:00;15.53;;;14.17;;
836;SDS011;400;53.550;9.932;2022-09-24T03:11:37;18.23;;;16.40;;
836;SDS011;400;53.550;9.932;2022-09-24T03:14:04;16.43;;;14.23;;
836;SDS011;400;53.550;9.932;2022-09-24T03:16:33;16.10;;;14.60;;
836;SDS011;400;53.550;9.932;2022-09-24T03:19:02;16.77;;;15.30;;
836;SDS011;400;53.550;9.932;2022-09-24T03:21:33;16.27;;;15.00;;
836;SDS011;400;53.550;9.932;2022-09-24T03:24:00;17.43;;;16.13;;
836;SDS011;400;53.550;9.932;2022-09-24T03:26:30;16.90;;;15.43;;
836;SDS011;400;53.550;9.932;2022-09-24T03:28:57;18.87;;;17.00;;
836;SDS011;400;53.550;9.932;2022-09-24T03:31:24;17.67;;;15.90;;
836;SDS011;400;53.550;9.932;2022-09-24T03:33:51;17.50;;;15.97;;
836;SDS011;400;53.550;9.932;2022-09-24T03:36:19;17.07;;;15.60;;
836;SDS011;400;53.550;9.932;2022-09-24T03:38:49;17.77;;;16.23;;
836;SDS011;400;53.550;9.932;2022-09-24T03:41:23;18.37;;;16.73;;
836;SDS011;400;53.550;9.932;2022-09-24T03:43:54;17.33;;;15.60;;
836;SDS011;400;53.550;9.932;2022-09-24T03:46:21;17.20;;;15.70;;
836;SDS011;400;53.550;9.932;2022-09-24T03:48:56;16.20;;;14.80;;
836;SDS011;400;53.550;9.932;2022-09-24T03:51:27;17.80;;;16.10;;
836;SDS011;400;53.550;9.932;2022-09-24T03:53:57;20.10;;;18.30;;
836;SDS011;400;53.550;9.932;2022-09-24T03:56:29;18.70;;;17.07;;
836;SDS011;400;53.550;9.932;2022-09-24T03:58:56;17.50;;;16.00;;
836;SDS011;400;53.550;9.932;2022-09-24T04:01:25;19.73;;;17.93;;
836;SDS011;400;53.550;9.932;2022-09-24T04:03:54;20.30;;;18.40;;
836;SDS011;400;53.550;9.932;2022-09-24T04:06:21;18.87;;;17.37;;
836;SDS011;400;53.550;9.932;2022-09-24T04:08:50;19.70;;;17.80;;
836;SDS011;400;53.550;9.932;2022-09-24T04:11:20;18.33;;;16.77;;
836;SDS011;400;53.550;9.932;2022-09-24T04:13:50;22.03;;;20.13;;
836;SDS011;400;53.550;9.932;2022-09-24T04:16:17;20.53;;;18.83;;
836;SDS011;400;53.550;9.932;2022-09-24T04:18:44;21.10;;;19.20;;
836;SDS011;400;53.550;9.932;2022-09-24T04:21:14;21.10;;;18.77;;
836;SDS011;400;53.550;9.932;2022-09-24T04:23:41;21.33;;;19.13;;
836;SDS011;400;53.550;9.932;2022-09-24T04:26:10;20.63;;;18.70;;
836;SDS011;400;53.550;9.932;2022-09-24T04:28:37;22.20;;;20.20;;
836;SDS011;400;53.550;9.932;2022-09-24T04:31:04;19.10;;;17.30;;
836;SDS011;400;53.550;9.932;2022-09-24T04:33:31;20.30;;;18.20;;
836;SDS011;400;53.550;9.932;2022-09-24T04:36:01;19.63;;;17.90;;
836;SDS011;400;53.550;9.932;2022-09-24T04:38:32;18.90;;;17.10;;
836;SDS011;400;53.550;9.932;2022-09-24T04:41:05;19.67;;;17.70;;
836;SDS011;400;53.550;9.932;2022-09-24T04:43:33;19.73;;;18.00;;
836;SDS011;400;53.550;9.932;2022-09-24T04:46:01;18.97;;;17.27;;
836;SDS011;400;53.550;9.932;2022-09-24T04:48:31;18.10;;;16.30;;
836;SDS011;400;53.550;9.932;2022-09-24T04:51:01;18.00;;;16.27;;
836;SDS011;400;53.550;9.932;2022-09-24T04:53:33;17.03;;;15.50;;
836;SDS011;400;53.550;9.932;2022-09-24T04:56:04;19.77;;;18.00;;
836;SDS011;400;53.550;9.932;2022-09-24T04:58:35;16.90;;;15.40;;
836;SDS011;400;53.550;9.932;2022-09-24T05:01:02;20.60;;;18.50;;
836;SDS011;400;53.550;9.932;2022-09-24T05:03:29;19.43;;;17.67;;
836;SDS011;400;53.550;9.932;2022-09-24T05:05:57;17.60;;;16.00;;
836;SDS011;400;53.550;9.932;2022-09-24T05:08:26;16.70;;;15.20;;
836;SDS011;400;53.550;9.932;2022-09-24T05:10:54;17.27;;;15.87;;
836;SDS011;400;53.550;9.932;2022-09-24T05:13:24;19.13;;;17.53;;
836;SDS011;400;53.550;9.932;2022-09-24T05:15:56;17.97;;;16.27;;
836;SDS011;400;53.550;9.932;2022-09-24T05:18:24;18.70;;;16.97;;
836;SDS011;400;53.550;9.932;2022-09-24T05:20:54;17.87;;;16.13;;
836;SDS011;400;53.550;9.932;2022-09-24T05:23:23;18.43;;;16.67;;
836;SDS011;400;53.550;9.932;2022-09-24T05:25:53;18.40;;;16.80;;
836;SDS011;400;53.550;9.932;2022-09-24T05:28:39;17.80;;;16.50;;
836;SDS011;400;53.550;9.932;2022-09-24T05:31:09;18.13;;;16.47;;
836;SDS011;400;53.550;9.932;2022-09-24T05:33:39;19.57;;;17.60;;
836;SDS011;400;53.550;9.932;2022-09-24T05:36:08;17.43;;;15.93;;
836;SDS011;400;53.550;9.932;2022-09-24T05:38:34;18.07;;;16.37;;
836;SDS011;400;53.550;9.932;2022-09-24T05:41:02;17.90;;;16.40;;
836;SDS011;400;53.550;9.932;2022-09-24T05:43:33;18.33;;;16.80;;
836;SDS011;400;53.550;9.932;2022-09-24T05:46:00;18.63;;;16.83;;
836;SDS011;400;53.550;9.932;2022-09-24T05:48:27;16.73;;;15.33;;
836;SDS011;400;53.550;9.932;2022-09-24T05:50:54;19.63;;;17.93;;
836;SDS011;400;53.550;9.932;2022-09-24T05:53:21;16.37;;;15.10;;
836;SDS011;400;53.550;9.932;2022-09-24T05:55:52;16.97;;;15.43;;
836;SDS011;400;53.550;9.932;2022-09-24T05:58:21;17.17;;;15.80;;
836;SDS011;400;53.550;9.932;2022-09-24T06:00:49;16.07;;;14.83;;
836;SDS011;400;53.550;9.932;2022-09-24T06:03:18;15.37;;;14.07;;
836;SDS011;400;53.550;9.932;2022-09-24T06:05:46;17.27;;;15.87;;
836;SDS011;400;53.550;9.932;2022-09-24T06:08:20;15.93;;;14.53;;
836;SDS011;400;53.550;9.932;2022-09-24T06:10:49;15.53;;;14.20;;
836;SDS011;400;53.550;9.932;2022-09-24T06:13:17;16.43;;;15.00;;
836;SDS011;400;53.550;9.932;2022-09-24T06:15:59;15.57;;;14.20;;
836;SDS011;400;53.550;9.932;2022-09-24T06:18:27;16.00;;;14.57;;
836;SDS011;400;53.550;9.932;2022-09-24T06:20:54;16.00;;;14.70;;
836;SDS011;400;53.550;9.932;2022-09-24T06:23:29;15.77;;;14.43;;
836;SDS011;400;53.550;9.932;2022-09-24T06:25:56;16.90;;;15.47;;
836;SDS011;400;53.550;9.932;2022-09-24T06:28:25;17.93;;;16.13;;
836;SDS011;400;53.550;9.932;2022-09-24T06:30:53;17.47;;;16.00;;
836;SDS011;400;53.550;9.932;2022-09-24T06:33:31;19.50;;;17.50;;
836;SDS011;400;53.550;9.932;2022-09-24T06:36:03;21.40;;;19.37;;
836;SDS011;400;53.550;9.932;2022-09-24T06:38:32;21.00;;;18.90;;
836;SDS011;400;53.550;9.932;2022-09-24T06:41:07;21.57;;;19.67;;
836;SDS011;400;53.550;9.932;2022-09-24T06:43:38;45.13;;;40.47;;
836;SDS011;400;53.550;9.932;2022-09-24T06:46:05;23.60;;;21.60;;
836;SDS011;400;53.550;9.932;2022-09-24T06:48:33;22.47;;;20.33;;
836;SDS011;400;53.550;9.932;2022-09-24T06:51:02;25.23;;;22.80;;
836;SDS011;400;53.550;9.932;2022-09-24T06:53:32;22.73;;;20.77;;
836;SDS011;400;53.550;9.932;2022-09-24T06:55:59;21.90;;;19.87;;
836;SDS011;400;53.550;9.932;2022-09-24T06:58:30;22.57;;;20.57;;
836;SDS011;400;53.550;9.932;2022-09-24T07:01:02;22.50;;;20.43;;
836;SDS011;400;53.550;9.932;2022-09-24T07:03:36;24.07;;;21.77;;
836;SDS011;400;53.550;9.932;2022-09-24T07:06:04;22.37;;;20.43;;
836;SDS011;400;53.550;9.932;2022-09-24T07:08:32;21.50;;;19.43;;
836;SDS011;400;53.550;9.932;2022-09-24T07:10:59;25.87;;;23.37;;
836;SDS011;400;53.550;9.932;2022-09-24T07:13:28;23.57;;;21.23;;
836;SDS011;400;53.550;9.932;2022-09-24T07:16:03;28.60;;;26.00;;
836;SDS011;400;53.550;9.932;2022-09-24T07:18:30;24.40;;;22.23;;
836;SDS011;400;53.550;9.932;2022-09-24T07:21:00;22.87;;;20.87;;
836;SDS011;400;53.550;9.932;2022-09-24T07:23:28;20.17;;;18.57;;
836;SDS011;400;53.550;9.932;2022-09-24T07:26:02;21.17;;;19.17;;
836;SDS011;400;53.550;9.932;2022-09-24T07:28:30;21.53;;;19.53;;
836;SDS011;400;53.550;9.932;2022-09-24T07:30:58;24.97;;;22.43;;
836;SDS011;400;53.550;9.932;2022-09-24T07:33:33;21.90;;;20.00;;
836;SDS011;400;53.550;9.932;2022-09-24T07:36:06;20.50;;;18.80;;
836;SDS011;400;53.550;9.932;2022-09-24T07:38:37;23.67;;;21.27;;
836;SDS011;400;53.550;9.932;2022-09-24T07:41:06;21.50;;;19.40;;
836;SDS011;400;53.550;9.932;2022-09-24T07:43:36;23.33;;;21.13;;
836;SDS011;400;53.550;9.932;2022-09-24T07:46:07;21.43;;;19.63;;
836;SDS011;400;53.550;9.932;2022-09-24T07:48:35;21.97;;;19.97;;
836;SDS011;400;53.550;9.932;2022-09-24T07:51:14;22.30;;;20.10;;
836;SDS011;400;53.550;9.932;2022-09-24T07:53:52;22.57;;;20.27;;
836;SDS011;400;53.550;9.932;2022-09-24T07:56:25;22.77;;;20.83;;
836;SDS011;400;53.550;9.932;2022-09-24T07:58:54;22.87;;;20.77;;
836;SDS011;400;53.550;9.932;2022-09-24T08:01:24;21.63;;;19.63;;
836;SDS011;400;53.550;9.932;2022-09-24T08:03:57;21.90;;;19.90;;
836;SDS011;400;53.550;9.932;2022-09-24T08:06:30;20.17;;;18.27;;
836;SDS011;400;53.550;9.932;2022-09-24T08:09:04;20.87;;;18.93;;
836;SDS011;400;53.550;9.932;2022-09-24T08:11:38;21.63;;;19.63;;
836;SDS011;400;53.550;9.932;2022-09-24T08:14:05;21.07;;;19.23;;
836;SDS011;400;53.550;9.932;2022-09-24T08:16:33;20.30;;;18.30;;
836;SDS011;400;53.550;9.932;2022-09-24T08:19:07;19.83;;;18.07;;
836;SDS011;400;53.550;9.932;2022-09-24T08:21:44;18.40;;;16.80;;
836;SDS011;400;53.550;9.932;2022-09-24T08:24:18;20.37;;;18.47;;
836;SDS011;400;53.550;9.932;2022-09-24T08:26:45;19.07;;;17.43;;
836;SDS011;400;53.550;9.932;2022-09-24T08:29:17;19.53;;;17.60;;
836;SDS011;400;53.550;9.932;2022-09-24T08:31:46;20.63;;;18.83;;
836;SDS011;400;53.550;9.932;2022-09-24T08:34:15;19.70;;;18.00;;
836;SDS011;400;53.550;9.932;2022-09-24T08:36:46;18.97;;;17.27;;
836;SDS011;400;53.550;9.932;2022-09-24T08:39:15;19.47;;;17.77;;
836;SDS011;400;53.550;9.932;2022-09-24T08:41:49;21.67;;;19.60;;
836;SDS011;400;53.550;9.932;2022-09-24T08:44:22;18.57;;;16.97;;
836;SDS011;400;53.550;9.932;2022-09-24T08:47:13;19.80;;;18.10;;
836;SDS011;400;53.550;9.932;2022-09-24T08:49:50;20.13;;;18.40;;
836;SDS011;400;53.550;9.932;2022-09-24T08:52:54;18.57;;;16.90;;
836;SDS011;400;53.550;9.932;2022-09-24T08:55:30;19.43;;;17.63;;
836;SDS011;400;53.550;9.932;2022-09-24T08:58:10;20.60;;;18.53;;
836;SDS011;400;53.550;9.932;2022-09-24T09:00:50;20.47;;;18.60;;
836;SDS011;400;53.550;9.932;2022-09-24T09:03:23;20.83;;;18.93;;
836;SDS011;400;53.550;9.932;2022-09-24T09:06:02;19.57;;;17.83;;
836;SDS011;400;53.550;9.932;2022-09-24T09:08:42;21.00;;;19.10;;
836;SDS011;400;53.550;9.932;2022-09-24T09:11:19;20.97;;;19.03;;
836;SDS011;400;53.550;9.932;2022-09-24T09:13:50;22.00;;;19.77;;
836;SDS011;400;53.550;9.932;2022-09-24T09:16:25;22.13;;;20.20;;
836;SDS011;400;53.550;9.932;2022-09-24T09:18:59;21.20;;;19.30;;
836;SDS011;400;53.550;9.932;2022-09-24T09:21:40;24.20;;;22.00;;
836;SDS011;400;53.550;9.932;2022-09-24T09:24:14;22.07;;;20.10;;
836;SDS011;400;53.550;9.932;2022-09-24T09:26:45;22.70;;;20.50;;
836;SDS011;400;53.550;9.932;2022-09-24T09:29:15;23.00;;;20.73;;
836;SDS011;400;53.550;9.932;2022-09-24T09:31:47;21.63;;;19.63;;
836;SDS011;400;53.550;9.932;2022-09-24T09:34:30;23.83;;;21.63;;
836;SDS011;400;53.550;9.932;2022-09-24T09:37:21;23.20;;;21.00;;
836;SDS011;400;53.550;9.932;2022-09-24T09:39:56;22.90;;;20.87;;
836;SDS011;400;53.550;9.932;2022-09-24T09:42:34;23.23;;;21.13;;
836;SDS011;400;53.550;9.932;2022-09-24T09:45:14;22.77;;;20.63;;
836;SDS011;400;53.550;9.932;2022-09-24T09:47:52;24.40;;;22.30;;
836;SDS011;400;53.550;9.932;2022-09-24T09:50:24;24.47;;;22.27;;
836;SDS011;400;53.550;9.932;2022-09-24T09:52:53;24.33;;;22.13;;
836;SDS011;400;53.550;9.932;2022-09-24T09:55:24;24.10;;;21.80;;
836;SDS011;400;53.550;9.932;2022-09-24T09:58:07;25.07;;;22.60;;
836;SDS011;400;53.550;9.932;2022-09-24T10:00:43;26.73;;;24.20;;
836;SDS011;400;53.550;9.932;2022-09-24T10:03:24;23.30;;;21.10;;
836;SDS011;400;53.550;9.932;2022-09-24T10:05:54;24.90;;;22.70;;
836;SDS011;400;53.550;9.932;2022-09-24T10:08:23;25.50;;;23.10;;
836;SDS011;400;53.550;9.932;2022-09-24T10:11:03;25.90;;;23.60;;
836;SDS011;400;53.550;9.932;2022-09-24T10:13:32;25.87;;;23.43;;
836;SDS011;400;53.550;9.932;2022-09-24T10:15:59;23.23;;;21.13;;
836;SDS011;400;53.550;9.932;2022-09-24T10:18:31;25.60;;;23.30;;
836;SDS011;400;53.550;9.932;2022-09-24T10:21:03;25.60;;;23.10;;
836;SDS011;400;53.550;9.932;2022-09-24T10:23:33;27.33;;;24.63;;
836;SDS011;400;53.550;9.932;2022-09-24T10:26:07;26.57;;;24.10;;
836;SDS011;400;53.550;9.932;2022-09-24T10:28:36;26.40;;;24.00;;
836;SDS011;400;53.550;9.932;2022-09-24T10:31:24;26.37;;;23.70;;
836;SDS011;400;53.550;9.932;2022-09-24T10:33:58;26.30;;;23.80;;
836;SDS011;400;53.550;9.932;2022-09-24T10:36:38;24.93;;;22.60;;
836;SDS011;400;53.550;9.932;2022-09-24T10:39:20;24.47;;;22.07;;
836;SDS011;400;53.550;9.932;2022-09-24T10:41:55;27.70;;;24.90;;
836;SDS011;400;53.550;9.932;2022-09-24T10:44:23;26.73;;;24.17;;
836;SDS011;400;53.550;9.932;2022-09-24T10:47:02;26.87;;;24.47;;
836;SDS011;400;53.550;9.932;2022-09-24T10:49:52;26.17;;;23.73;;
836;SDS011;400;53.550;9.932;2022-09-24T10:52:49;25.50;;;23.00;;
836;SDS011;400;53.550;9.932;2022-09-24T10:55:26;26.47;;;23.97;;
836;SDS011;400;53.550;9.932;2022-09-24T10:58:09;27.43;;;24.57;;
836;SDS011;400;53.550;9.932;2022-09-24T11:00:52;30.57;;;27.30;;
836;SDS011;400;53.550;9.932;2022-09-24T11:03:34;25.10;;;22.60;;
836;SDS011;400;53.550;9.932;2022-09-24T11:06:23;27.37;;;24.73;;
836;SDS011;400;53.550;9.932;2022-09-24T11:09:11;27.77;;;25.17;;
836;SDS011;400;53.550;9.932;2022-09-24T11:11:53;28.40;;;25.70;;
836;SDS011;400;53.550;9.932;2022-09-24T11:17:32;27.63;;;25.13;;
836;SDS011;400;53.550;9.932;2022-09-24T11:20:13;27.63;;;25.13;;
836;SDS011;400;53.550;9.932;2022-09-24T11:25:53;29.53;;;26.80;;
836;SDS011;400;53.550;9.932;2022-09-24T11:28:46;28.40;;;25.80;;
836;SDS011;400;53.550;9.932;2022-09-24T11:31:46;27.80;;;25.30;;
836;SDS011;400;53.550;9.932;2022-09-24T11:34:30;28.73;;;26.03;;
836;SDS011;400;53.550;9.932;2022-09-24T11:37:10;27.17;;;24.63;;
836;SDS011;400;53.550;9.932;2022-09-24T11:40:00;27.20;;;24.50;;
836;SDS011;400;53.550;9.932;2022-09-24T11:42:43;26.13;;;23.73;;
836;SDS011;400;53.550;9.932;2022-09-24T11:45:21;27.50;;;24.83;;
836;SDS011;400;53.550;9.932;2022-09-24T11:48:22;28.57;;;25.97;;
836;SDS011;400;53.550;9.932;2022-09-24T11:51:29;28.80;;;26.03;;
836;SDS011;400;53.550;9.932;2022-09-24T11:54:02;29.00;;;25.93;;
836;SDS011;400;53.550;9.932;2022-09-24T11:56:36;27.40;;;24.67;;
836;SDS011;400;53.550;9.932;2022-09-24T11:59:09;29.03;;;26.03;;
836;SDS011;400;53.550;9.932;2022-09-24T12:01:55;32.50;;;29.43;;
836;SDS011;400;53.550;9.932;2022-09-24T12:04:37;35.30;;;31.97;;
836;SDS011;400;53.550;9.932;2022-09-24T12:07:19;29.73;;;26.87;;
836;SDS011;400;53.550;9.932;2022-09-24T12:09:57;27.53;;;25.17;;
836;SDS011;400;53.550;9.932;2022-09-24T12:12:30;30.77;;;27.97;;
836;SDS011;400;53.550;9.932;2022-09-24T12:15:06;28.27;;;25.73;;
836;SDS011;400;53.550;9.932;2022-09-24T12:17:44;30.03;;;27.13;;
836;SDS011;400;53.550;9.932;2022-09-24T12:20:19;28.50;;;25.80;;
836;SDS011;400;53.550;9.932;2022-09-24T12:22:50;28.13;;;25.43;;
836;SDS011;400;53.550;9.932;2022-09-24T12:25:24;29.13;;;26.40;;
836;SDS011;400;53.550;9.932;2022-09-24T12:27:59;29.40;;;26.50;;
836;SDS011;400;53.550;9.932;2022-09-24T12:30:38;28.70;;;25.90;;
836;SDS011;400;53.550;9.932;2022-09-24T12:33:30;25.87;;;23.47;;
836;SDS011;400;53.550;9.932;2022-09-24T12:36:08;28.03;;;25.37;;
836;SDS011;400;53.550;9.932;2022-09-24T12:38:51;29.10;;;26.17;;
836;SDS011;400;53.550;9.932;2022-09-24T12:41:26;26.53;;;24.33;;
836;SDS011;400;53.550;9.932;2022-09-24T12:44:06;27.93;;;25.17;;
836;SDS011;400;53.550;9.932;2022-09-24T12:46:47;27.13;;;24.63;;
836;SDS011;400;53.550;9.932;2022-09-24T12:49:23;27.43;;;24.83;;
836;SDS011;400;53.550;9.932;2022-09-24T12:52:02;26.47;;;24.17;;
836;SDS011;400;53.550;9.932;2022-09-24T12:54:43;27.70;;;25.20;;
836;SDS011;400;53.550;9.932;2022-09-24T12:57:15;26.37;;;23.97;;
836;SDS011;400;53.550;9.932;2022-09-24T12:59:49;27.20;;;24.70;;
836;SDS011;400;53.550;9.932;2022-09-24T13:02:27;28.10;;;25.40;;
836;SDS011;400;53.550;9.932;2022-09-24T13:05:16;26.20;;;23.60;;
836;SDS011;400;53.550;9.932;2022-09-24T13:07:56;27.87;;;25.30;;
836;SDS011;400;53.550;9.932;2022-09-24T13:10:25;26.97;;;24.50;;
836;SDS011;400;53.550;9.932;2022-09-24T13:12:54;27.03;;;24.63;;
836;SDS011;400;53.550;9.932;2022-09-24T13:15:26;29.00;;;26.20;;
836;SDS011;400;53.550;9.932;2022-09-24T13:18:04;29.53;;;26.70;;
836;SDS011;400;53.550;9.932;2022-09-24T13:20:59;29.47;;;26.67;;
836;SDS011;400;53.550;9.932;2022-09-24T13:23:46;28.43;;;25.43;;
836;SDS011;400;53.550;9.932;2022-09-24T13:26:28;25.83;;;23.43;;
836;SDS011;400;53.550;9.932;2022-09-24T13:28:59;29.10;;;26.50;;
836;SDS011;400;53.550;9.932;2022-09-24T13:31:43;27.30;;;24.80;;
836;SDS011;400;53.550;9.932;2022-09-24T13:34:16;27.67;;;25.17;;
836;SDS011;400;53.550;9.932;2022-09-24T13:36:47;27.40;;;24.90;;
836;SDS011;400;53.550;9.932;2022-09-24T13:39:26;29.50;;;26.90;;
836;SDS011;400;53.550;9.932;2022-09-24T13:41:59;26.07;;;23.87;;
836;SDS011;400;53.550;9.932;2022-09-24T13:44:33;32.70;;;29.50;;
836;SDS011;400;53.550;9.932;2022-09-24T13:47:10;28.97;;;26.37;;
836;SDS011;400;53.550;9.932;2022-09-24T13:49:49;27.80;;;25.17;;
836;SDS011;400;53.550;9.932;2022-09-24T13:52:23;28.83;;;26.03;;
836;SDS011;400;53.550;9.932;2022-09-24T13:54:57;27.73;;;25.37;;
836;SDS011;400;53.550;9.932;2022-09-24T13:57:41;27.60;;;25.07;;
836;SDS011;400;53.550;9.932;2022-09-24T14:00:24;28.87;;;26.17;;
836;SDS011;400;53.550;9.932;2022-09-24T14:02:58;28.90;;;26.07;;
836;SDS011;400;53.550;9.932;2022-09-24T14:05:45;28.60;;;26.00;;
836;SDS011;400;53.550;9.932;2022-09-24T14:08:27;28.33;;;25.77;;
836;SDS011;400;53.550;9.932;2022-09-24T14:11:12;28.30;;;25.70;;
836;SDS011;400;53.550;9.932;2022-09-24T14:13:43;28.93;;;26.23;;
836;SDS011;400;53.550;9.932;2022-09-24T14:16:27;29.77;;;27.07;;
836;SDS011;400;53.550;9.932;2022-09-24T14:19:01;28.90;;;26.30;;
836;SDS011;400;53.550;9.932;2022-09-24T14:21:34;30.50;;;27.50;;
836;SDS011;400;53.550;9.932;2022-09-24T14:24:12;29.80;;;27.17;;
836;SDS011;400;53.550;9.932;2022-09-24T14:26:53;29.40;;;26.80;;
836;SDS011;400;53.550;9.932;2022-09-24T14:29:26;31.13;;;28.33;;
836;SDS011;400;53.550;9.932;2022-09-24T14:31:56;29.93;;;27.33;;
836;SDS011;400;53.550;9.932;2022-09-24T14:34:26;30.07;;;27.17;;
836;SDS011;400;53.550;9.932;2022-09-24T14:37:07;29.70;;;27.10;;
836;SDS011;400;53.550;9.932;2022-09-24T14:39:39;29.07;;;26.40;;
836;SDS011;400;53.550;9.932;2022-09-24T14:42:16;28.60;;;26.10;;
836;SDS011;400;53.550;9.932;2022-09-24T14:44:55;28.40;;;25.80;;
836;SDS011;400;53.550;9.932;2022-09-24T14:47:31;29.13;;;26.40;;
836;SDS011;400;53.550;9.932;2022-09-24T14:50:02;26.63;;;24.33;;
836;SDS011;400;53.550;9.932;2022-09-24T14:52:46;28.30;;;25.63;;
836;SDS011;400;53.550;9.932;2022-09-24T14:55:34;27.53;;;25.03;;
836;SDS011;400;53.550;9.932;2022-09-24T14:58:20;27.17;;;24.73;;
836;SDS011;400;53.550;9.932;2022-09-24T15:01:04;29.43;;;26.83;;
836;SDS011;400;53.550;9.932;2022-09-24T15:03:44;28.67;;;26.10;;
836;SDS011;400;53.550;9.932;2022-09-24T15:06:18;30.70;;;27.73;;
836;SDS011;400;53.550;9.932;2022-09-24T15:08:52;29.60;;;26.60;;
836;SDS011;400;53.550;9.932;2022-09-24T15:11:35;101.40;;;91.07;;
836;SDS011;400;53.550;9.932;2022-09-24T15:14:12;30.27;;;27.57;;
836;SDS011;400;53.550;9.932;2022-09-24T15:16:50;56.47;;;50.93;;
836;SDS011;400;53.550;9.932;2022-09-24T15:19:18;26.77;;;24.47;;
836;SDS011;400;53.550;9.932;2022-09-24T15:22:09;29.30;;;26.70;;
836;SDS011;400;53.550;9.932;2022-09-24T15:24:40;29.57;;;26.97;;
836;SDS011;400;53.550;9.932;2022-09-24T15:27:14;29.20;;;26.53;;
836;SDS011;400;53.550;9.932;2022-09-24T15:29:51;29.93;;;27.33;;
836;SDS011;400;53.550;9.932;2022-09-24T15:32:25;29.80;;;26.90;;
836;SDS011;400;53.550;9.932;2022-09-24T15:35:03;28.33;;;25.60;;
836;SDS011;400;53.550;9.932;2022-09-24T15:37:36;29.70;;;26.87;;
836;SDS011;400;53.550;9.932;2022-09-24T15:40:09;30.10;;;27.27;;
836;SDS011;400;53.550;9.932;2022-09-24T15:42:51;27.70;;;25.30;;
836;SDS011;400;53.550;9.932;2022-09-24T15:45:23;29.17;;;26.67;;
836;SDS011;400;53.550;9.932;2022-09-24T15:47:54;32.00;;;29.10;;
836;SDS011;400;53.550;9.932;2022-09-24T15:50:27;29.43;;;26.53;;
836;SDS011;400;53.550;9.932;2022-09-24T15:52:57;28.30;;;25.80;;
836;SDS011;400;53.550;9.932;2022-09-24T15:55:32;31.63;;;28.73;;
836;SDS011;400;53.550;9.932;2022-09-24T15:58:10;29.97;;;27.20;;
836;SDS011;400;53.550;9.932;2022-09-24T16:00:41;31.27;;;28.27;;
836;SDS011;400;53.550;9.932;2022-09-24T16:03:12;31.67;;;28.87;;
836;SDS011;400;53.550;9.932;2022-09-24T16:05:46;28.50;;;25.90;;
836;SDS011;400;53.550;9.932;2022-09-24T16:08:18;29.50;;;26.80;;
836;SDS011;400;53.550;9.932;2022-09-24T16:10:57;29.33;;;26.40;;
836;SDS011;400;53.550;9.932;2022-09-24T16:13:33;28.83;;;26.23;;